createdAt,value
2022-11-02T00:00:53.176Z,61.41
2022-11-02T00:03:32.548Z,61.29
2022-11-02T00:06:03.581Z,60.70
2022-11-02T00:08:34.438Z,59.74
2022-11-02T00:11:03.449Z,60.01
2022-11-02T00:13:34.986Z,60.38
2022-11-02T00:16:06.944Z,59.32
2022-11-02T00:18:38.745Z,57.92
2022-11-02T00:21:11.999Z,58.99
2022-11-02T00:23:42.989Z,58.41
2022-11-02T00:26:12.238Z,57.59
2022-11-02T00:28:43.294Z,57.14
2022-11-02T00:31:12.961Z,58.67
2022-11-02T00:33:43.130Z,58.22
2022-11-02T00:36:14.838Z,57.42
2022-11-02T00:38:46.096Z,57.50
2022-11-02T00:41:22.798Z,57.06
2022-11-02T00:44:24.905Z,56.68
2022-11-02T00:47:46.851Z,55.61
2022-11-02T00:50:18.980Z,55.22
2022-11-02T00:52:52.136Z,57.75
2022-11-02T00:55:47.975Z,61.05
2022-11-02T00:58:22.125Z,63.63
2022-11-02T01:06:05.160Z,64.62
2022-11-02T01:24:50.724Z,62.23
2022-11-02T01:27:49.177Z,62.41
2022-11-02T01:30:18.091Z,63.41
2022-11-02T01:32:47.284Z,66.55
2022-11-02T01:35:17.963Z,67.18
2022-11-02T01:37:48.233Z,67.66
2022-11-02T01:40:17.564Z,68.59
2022-11-02T01:42:49.135Z,68.42
2022-11-02T01:45:20.236Z,68.22
2022-11-02T01:48:16.185Z,67.64
2022-11-02T01:50:48.807Z,67.95
2022-11-02T01:53:32.281Z,67.54
2022-11-02T01:58:59.367Z,68.53
2022-11-02T02:01:30.247Z,67.72
2022-11-02T02:04:01.142Z,67.50
2022-11-02T02:06:42.348Z,67.33
2022-11-02T02:09:13.082Z,68.64
2022-11-02T02:11:44.048Z,67.77
2022-11-02T02:14:19.870Z,66.90
2022-11-02T02:17:32.378Z,65.87
2022-11-02T02:20:06.838Z,65.67
2022-11-02T02:23:12.992Z,64.62
2022-11-02T02:26:15.224Z,64.07
2022-11-02T02:28:51.439Z,63.87
2022-11-02T02:31:28.627Z,64.09
2022-11-02T02:34:04.132Z,63.69
2022-11-02T02:36:37.895Z,63.62
2022-11-02T02:39:13.728Z,63.32
2022-11-02T02:41:47.180Z,63.33
2022-11-02T02:44:24.153Z,63.17
2022-11-02T02:47:00.351Z,63.44
2022-11-02T02:49:37.981Z,63.40
2022-11-02T02:52:07.894Z,63.26
2022-11-02T02:54:42.957Z,63.20
2022-11-02T02:57:16.721Z,63.60
2022-11-02T02:59:50.066Z,62.99
2022-11-02T03:02:25.118Z,62.84
2022-11-02T03:04:55.615Z,62.95
2022-11-02T03:07:31.133Z,66.95
2022-11-02T03:10:27.038Z,66.22
2022-11-02T03:13:12.619Z,66.03
2022-11-02T03:15:59.540Z,65.63
2022-11-02T03:18:54.348Z,65.63
2022-11-02T03:21:35.834Z,64.72
2022-11-02T03:24:15.357Z,64.98
2022-11-02T03:26:53.735Z,64.80
2022-11-02T03:29:52.303Z,64.90
2022-11-02T03:32:31.065Z,66.00
2022-11-02T03:35:05.715Z,68.92
2022-11-02T03:37:41.561Z,68.79
2022-11-02T03:40:21.403Z,68.70
2022-11-02T03:42:54.342Z,68.69
2022-11-02T03:45:50.281Z,67.34
2022-11-02T03:48:27.697Z,66.43
2022-11-02T03:51:21.872Z,67.98
2022-11-02T03:53:58.072Z,67.03
2022-11-02T03:56:35.443Z,67.71
2022-11-02T03:59:09.638Z,69.34
2022-11-02T04:01:44.517Z,68.25
2022-11-02T04:04:21.111Z,67.41
2022-11-02T04:06:51.371Z,67.49
2022-11-02T04:09:21.558Z,66.66
2022-11-02T04:12:09.057Z,65.94
2022-11-02T04:15:02.848Z,66.79
2022-11-02T04:18:15.697Z,67.07
2022-11-02T04:22:11.267Z,65.66
2022-11-02T04:25:00.185Z,65.15
2022-11-02T04:27:33.454Z,64.93
2022-11-02T04:30:02.792Z,63.96
2022-11-02T04:32:56.724Z,63.89
2022-11-02T04:35:29.829Z,63.52
2022-11-02T04:38:26.417Z,63.49
2022-11-02T04:44:11.779Z,62.80
2022-11-02T04:46:43.552Z,62.99
2022-11-02T04:49:14.453Z,62.61
2022-11-02T04:51:49.704Z,62.75
2022-11-02T04:54:22.613Z,62.47
2022-11-02T04:56:57.593Z,62.54
2022-11-02T04:59:29.201Z,62.82
2022-11-02T05:02:30.204Z,62.39
2022-11-02T05:05:07.042Z,62.25
2022-11-02T05:09:14.205Z,62.09
2022-11-02T05:11:53.826Z,65.81
2022-11-02T05:14:31.368Z,69.63
2022-11-02T05:17:01.462Z,71.07
2022-11-02T05:19:53.728Z,71.28
2022-11-02T05:22:33.869Z,72.59
2022-11-02T05:25:04.807Z,75.41
2022-11-02T05:27:39.313Z,75.80
2022-11-02T05:30:12.127Z,76.75
2022-11-02T05:32:43.401Z,77.26
2022-11-02T05:35:15.770Z,78.75
2022-11-02T05:37:52.161Z,77.77
2022-11-02T05:40:26.049Z,75.53
2022-11-02T05:46:53.077Z,73.00
2022-11-02T05:49:31.345Z,71.63
2022-11-02T05:52:42.444Z,70.61
2022-11-02T05:55:31.086Z,69.27
2022-11-02T05:58:03.362Z,69.08
2022-11-02T06:00:35.435Z,68.63
2022-11-02T06:03:05.413Z,69.51
2022-11-02T06:05:35.118Z,72.88
2022-11-02T06:11:32.606Z,76.08
2022-11-02T06:14:45.857Z,77.68
2022-11-02T06:17:50.089Z,78.82
2022-11-02T06:20:22.550Z,81.13
2022-11-02T06:24:00.108Z,80.01
2022-11-02T06:26:43.442Z,79.03
2022-11-02T06:29:52.655Z,76.56
2022-11-02T06:32:24.061Z,78.75
2022-11-02T06:34:53.955Z,79.39
2022-11-02T06:37:23.868Z,78.15
2022-11-02T06:39:54.182Z,76.82
2022-11-02T06:42:23.360Z,77.32
2022-11-02T06:44:56.751Z,77.85
2022-11-02T06:47:43.345Z,78.18
2022-11-02T06:50:16.189Z,76.63
2022-11-02T06:53:06.092Z,75.92
2022-11-02T06:55:58.018Z,74.67
2022-11-02T06:58:27.818Z,73.99
2022-11-02T07:01:04.137Z,72.59
2022-11-02T07:03:33.586Z,73.74
2022-11-02T07:06:03.706Z,73.92
2022-11-02T07:08:32.308Z,73.04
2022-11-02T07:11:01.029Z,71.00
2022-11-02T07:13:29.513Z,69.95
2022-11-02T07:15:58.326Z,68.76
2022-11-02T07:18:28.764Z,67.43
2022-11-02T07:21:00.186Z,66.57
2022-11-02T07:23:28.807Z,65.97
2022-11-02T07:25:57.558Z,64.98
2022-11-02T07:28:26.421Z,64.62
2022-11-02T07:30:58.573Z,64.21
2022-11-02T07:33:28.836Z,63.54
2022-11-02T07:35:57.862Z,62.96
2022-11-02T07:38:27.669Z,63.55
2022-11-02T07:40:57.707Z,63.65
2022-11-02T07:43:26.634Z,63.09
2022-11-02T07:46:15.955Z,62.82
2022-11-02T07:48:46.085Z,62.71
2022-11-02T07:51:15.436Z,62.14
2022-11-02T07:53:46.238Z,62.39
2022-11-02T07:56:15.250Z,61.71
2022-11-02T07:58:44.179Z,61.75
2022-11-02T08:01:14.094Z,61.19
2022-11-02T08:03:42.778Z,61.15
2022-11-02T08:06:13.424Z,61.59
2022-11-02T08:08:42.590Z,61.18
2022-11-02T08:11:32.999Z,61.22
2022-11-02T08:14:02.557Z,61.13
2022-11-02T08:16:31.349Z,61.01
2022-11-02T08:19:00.543Z,61.04
2022-11-02T08:21:30.263Z,60.55
2022-11-02T08:23:59.083Z,60.79
2022-11-02T08:26:27.787Z,60.74
2022-11-02T08:29:02.589Z,60.79
2022-11-02T08:31:33.365Z,60.96
2022-11-02T08:34:04.100Z,61.03
2022-11-02T08:36:36.793Z,61.52
2022-11-02T08:39:07.674Z,61.05
2022-11-02T08:41:37.332Z,61.17
2022-11-02T08:44:28.424Z,60.83
2022-11-02T08:46:58.853Z,60.29
2022-11-02T08:49:33.015Z,59.94
2022-11-02T08:52:04.978Z,60.14
2022-11-02T08:54:34.591Z,60.14
2022-11-02T08:57:03.471Z,59.58
2022-11-02T08:59:35.068Z,59.13
2022-11-02T09:02:07.698Z,59.18
2022-11-02T09:04:36.913Z,59.15
2022-11-02T09:07:06.904Z,59.04
2022-11-02T09:09:36.155Z,58.45
2022-11-02T09:12:05.334Z,58.35
2022-11-02T09:14:34.743Z,58.05
2022-11-02T09:17:05.454Z,58.04
2022-11-02T09:19:37.014Z,57.48
2022-11-02T09:22:08.079Z,57.07
2022-11-02T09:24:39.301Z,57.36
2022-11-02T09:27:08.426Z,57.04
2022-11-02T09:29:38.415Z,57.21
2022-11-02T09:32:07.359Z,56.71
2022-11-02T09:34:37.787Z,56.68
2022-11-02T09:37:09.156Z,57.19
2022-11-02T09:39:38.989Z,57.12
2022-11-02T09:42:20.687Z,56.79
2022-11-02T09:44:55.251Z,56.41
2022-11-02T09:48:10.888Z,56.20
2022-11-02T09:50:19.803Z,55.79
2022-11-02T09:52:56.642Z,55.96
2022-11-02T09:55:31.399Z,55.62
2022-11-02T09:58:06.404Z,55.99
2022-11-02T10:00:41.740Z,56.22
2022-11-02T10:03:24.847Z,55.73
2022-11-02T10:06:00.130Z,55.70
2022-11-02T10:08:41.022Z,55.58
2022-11-02T10:11:32.388Z,55.09
2022-11-02T10:14:08.437Z,55.57
2022-11-02T10:16:41.369Z,55.42
2022-11-02T10:19:16.523Z,55.82
2022-11-02T10:21:49.963Z,59.38
2022-11-02T10:24:26.470Z,64.13
2022-11-02T10:27:01.117Z,64.50
2022-11-02T10:29:50.804Z,62.95
2022-11-02T10:32:20.180Z,62.17
2022-11-02T10:35:33.848Z,61.57
2022-11-02T10:38:24.046Z,63.99
2022-11-02T10:41:13.809Z,62.20
2022-11-02T10:44:04.437Z,67.24
2022-11-02T10:46:44.245Z,67.23
2022-11-02T10:49:27.481Z,65.62
2022-11-02T10:52:18.626Z,66.14
2022-11-02T10:54:51.075Z,67.96
2022-11-02T10:57:26.364Z,68.02
2022-11-02T11:00:24.028Z,68.80
2022-11-02T11:03:10.632Z,67.60
2022-11-02T11:05:59.483Z,65.93
2022-11-02T11:08:37.630Z,64.32
2022-11-02T11:11:20.258Z,62.77
2022-11-02T11:16:52.741Z,62.57
2022-11-02T11:19:41.156Z,62.35
2022-11-02T11:22:28.101Z,64.19
2022-11-02T11:25:27.101Z,65.77
2022-11-02T11:27:58.269Z,66.31
2022-11-02T11:33:23.449Z,69.75
2022-11-02T11:35:53.283Z,70.32
2022-11-02T11:38:26.277Z,70.46
2022-11-02T11:40:57.125Z,69.91
2022-11-02T11:43:29.615Z,68.46
2022-11-02T11:46:06.543Z,71.13
2022-11-02T11:48:39.484Z,69.77
2022-11-02T11:51:30.718Z,70.46
2022-11-02T11:54:20.240Z,70.52
2022-11-02T11:56:50.693Z,70.65
2022-11-02T11:59:25.395Z,70.39
2022-11-02T12:01:59.009Z,72.17
2022-11-02T12:04:37.677Z,70.70
2022-11-02T12:07:30.519Z,70.37
2022-11-02T12:10:10.753Z,71.75
2022-11-02T12:12:54.782Z,71.43
2022-11-02T12:15:44.075Z,71.56
2022-11-02T12:18:33.304Z,73.81
2022-11-02T12:21:40.863Z,74.51
2022-11-02T12:24:46.370Z,73.94
2022-11-02T12:27:29.306Z,72.49
2022-11-02T12:30:18.633Z,70.27
2022-11-02T12:33:06.498Z,68.84
2022-11-02T12:35:57.621Z,67.43
2022-11-02T12:38:50.837Z,66.35
2022-11-02T12:41:41.939Z,67.87
2022-11-02T12:44:28.354Z,69.65
2022-11-02T12:47:07.341Z,70.81
2022-11-02T12:49:46.815Z,71.96
2022-11-02T12:52:29.550Z,71.95
2022-11-02T12:55:05.266Z,70.12
2022-11-02T12:57:41.449Z,70.30
2022-11-02T13:00:20.692Z,72.22
2022-11-02T13:02:59.260Z,73.61
2022-11-02T13:05:35.803Z,74.38
2022-11-02T13:08:16.267Z,73.51
2022-11-02T13:10:53.475Z,73.19
2022-11-02T13:13:46.566Z,73.56
2022-11-02T13:16:18.873Z,71.06
2022-11-02T13:18:53.349Z,70.49
2022-11-02T13:21:38.570Z,72.47
2022-11-02T13:24:19.917Z,71.89
2022-11-02T13:26:57.192Z,69.76
2022-11-02T13:29:36.790Z,68.17
2022-11-02T13:32:12.242Z,70.41
2022-11-02T13:34:44.576Z,70.38
2022-11-02T13:37:18.366Z,70.39
2022-11-02T13:39:52.653Z,72.23
2022-11-02T13:42:43.818Z,71.17
2022-11-02T13:45:46.272Z,68.90
2022-11-02T13:48:37.592Z,66.90
2022-11-02T13:51:09.253Z,66.22
2022-11-02T13:53:42.472Z,65.28
2022-11-02T13:56:22.625Z,64.50
2022-11-02T13:58:58.956Z,63.60
2022-11-02T14:01:31.698Z,63.68
2022-11-02T14:04:05.758Z,62.92
2022-11-02T14:06:44.730Z,64.23
2022-11-02T14:09:25.747Z,64.06
2022-11-02T14:12:12.956Z,63.68
2022-11-02T14:14:42.589Z,63.62
2022-11-02T14:17:13.514Z,65.93
2022-11-02T14:20:04.776Z,64.69
2022-11-02T14:22:33.439Z,64.04
2022-11-02T14:25:20.226Z,63.98
2022-11-02T14:27:50.032Z,63.35
2022-11-02T14:30:46.653Z,62.90
2022-11-02T14:33:40.034Z,62.66
2022-11-02T14:36:21.331Z,62.18
2022-11-02T14:38:59.890Z,61.44
2022-11-02T14:42:23.224Z,60.92
2022-11-02T14:45:25.720Z,60.99
2022-11-02T14:48:00.054Z,60.72
2022-11-02T14:50:28.827Z,60.45
2022-11-02T14:53:04.277Z,60.23
2022-11-02T14:55:34.660Z,59.98
2022-11-02T14:58:10.802Z,60.19
2022-11-02T15:00:58.304Z,59.81
2022-11-02T15:03:41.994Z,59.41
2022-11-02T15:06:22.787Z,59.67
2022-11-02T15:08:56.007Z,59.76
2022-11-02T15:11:48.513Z,59.39
2022-11-02T15:14:55.198Z,59.27
2022-11-02T15:18:17.462Z,60.40
2022-11-02T15:20:47.075Z,60.46
2022-11-02T15:23:30.727Z,61.15
2022-11-02T15:26:01.949Z,61.13
2022-11-02T15:28:38.440Z,60.77
2022-11-02T15:31:21.762Z,60.24
2022-11-02T15:34:01.139Z,60.62
2022-11-02T15:36:50.788Z,60.60
2022-11-02T15:39:20.271Z,60.55
2022-11-02T15:42:02.698Z,60.37
2022-11-02T15:45:05.496Z,59.81
2022-11-02T15:47:55.774Z,59.98
2022-11-02T15:50:41.174Z,59.71
2022-11-02T15:53:42.400Z,60.54
2022-11-02T15:56:36.833Z,60.63
2022-11-02T15:59:41.904Z,60.92
2022-11-02T16:02:20.707Z,61.71
2022-11-02T16:04:53.100Z,61.62
2022-11-02T16:07:33.183Z,61.68
2022-11-02T16:10:23.501Z,61.43
2022-11-02T16:13:01.452Z,61.55
2022-11-02T16:15:31.642Z,61.53
2022-11-02T16:18:01.008Z,61.32
2022-11-02T16:20:33.811Z,61.64
2022-11-02T16:23:06.203Z,61.24
2022-11-02T16:25:40.374Z,61.19
2022-11-02T16:28:19.499Z,61.79
2022-11-02T16:31:08.239Z,62.54
2022-11-02T16:34:03.437Z,62.39
2022-11-02T16:36:36.361Z,63.89
2022-11-02T16:39:17.093Z,63.99
2022-11-02T16:41:51.957Z,63.96
2022-11-02T16:44:26.892Z,64.30
2022-11-02T16:47:00.480Z,64.57
2022-11-02T16:49:59.828Z,64.77
2022-11-02T16:52:34.242Z,64.85
2022-11-02T16:55:24.871Z,64.29
2022-11-02T16:57:53.769Z,64.05
2022-11-02T17:00:23.020Z,64.26
2022-11-02T17:02:55.812Z,63.58
2022-11-02T17:05:27.403Z,64.02
2022-11-02T17:08:01.717Z,63.52
2022-11-02T17:10:34.360Z,63.57
2022-11-02T17:13:09.322Z,62.88
2022-11-02T17:15:40.012Z,62.60
2022-11-02T17:18:25.163Z,62.43
2022-11-02T17:21:24.531Z,62.34
2022-11-02T17:23:56.475Z,62.12
2022-11-02T17:26:38.265Z,62.22
2022-11-02T17:29:47.090Z,61.64
2022-11-02T17:32:18.022Z,61.67
2022-11-02T17:34:54.795Z,61.51
2022-11-02T17:37:30.631Z,61.03
2022-11-02T17:40:02.767Z,61.19
2022-11-02T17:42:50.429Z,61.02
2022-11-02T17:45:28.629Z,61.31
2022-11-02T17:47:59.055Z,61.31
2022-11-02T17:50:30.944Z,61.46
2022-11-02T17:53:01.494Z,61.33
2022-11-02T17:55:33.322Z,61.23
2022-11-02T17:58:03.295Z,61.14
2022-11-02T18:00:35.257Z,61.48
2022-11-02T18:03:04.580Z,62.73
2022-11-02T18:05:37.588Z,62.00
2022-11-02T18:08:09.047Z,61.80
2022-11-02T18:10:40.848Z,61.71
2022-11-02T18:13:13.363Z,61.50
2022-11-02T18:15:42.943Z,61.16
2022-11-02T18:18:11.925Z,61.14
2022-11-02T18:21:02.565Z,60.57
2022-11-02T18:23:33.052Z,60.34
2022-11-02T18:26:01.953Z,60.60
2022-11-02T18:28:34.739Z,60.61
2022-11-02T18:31:07.724Z,60.41
2022-11-02T18:33:36.876Z,60.52
2022-11-02T18:36:07.848Z,60.42
2022-11-02T18:38:37.015Z,60.34
2022-11-02T18:41:29.837Z,60.23
2022-11-02T18:44:05.598Z,60.03
2022-11-02T18:46:36.188Z,60.13
2022-11-02T18:49:05.083Z,61.63
2022-11-02T18:51:34.609Z,61.75
2022-11-02T18:54:06.186Z,62.90
2022-11-02T18:56:35.477Z,61.78
2022-11-02T18:59:05.615Z,61.91
2022-11-02T19:01:35.080Z,61.56
2022-11-02T19:04:04.422Z,61.97
2022-11-02T19:06:52.077Z,64.43
2022-11-02T19:09:23.411Z,63.42
2022-11-02T19:11:56.873Z,64.56
2022-11-02T19:14:28.858Z,64.52
2022-11-02T19:16:57.970Z,63.75
2022-11-02T19:19:29.099Z,63.20
2022-11-02T19:21:58.822Z,63.00
2022-11-02T19:24:47.592Z,62.12
2022-11-02T19:27:18.501Z,61.95
2022-11-02T19:29:48.772Z,62.14
2022-11-02T19:32:18.328Z,61.69
2022-11-02T19:34:48.253Z,61.58
2022-11-02T19:37:17.236Z,61.76
2022-11-02T19:39:45.945Z,63.44
2022-11-02T19:42:14.909Z,62.70
2022-11-02T19:44:46.141Z,62.16
2022-11-02T19:47:17.015Z,62.32
2022-11-02T19:49:46.811Z,61.79
2022-11-02T19:52:16.005Z,61.55
2022-11-02T19:54:44.578Z,61.16
2022-11-02T19:57:13.352Z,61.01
2022-11-02T19:59:44.493Z,60.73
2022-11-02T20:02:13.719Z,61.14
2022-11-02T20:04:44.345Z,60.92
2022-11-02T20:07:14.406Z,62.01
2022-11-02T20:09:43.232Z,62.80
2022-11-02T20:12:12.537Z,62.10
2022-11-02T20:14:41.298Z,61.82
2022-11-02T20:17:30.107Z,61.55
2022-11-02T20:20:01.425Z,64.90
2022-11-02T20:22:52.763Z,69.35
2022-11-02T20:25:23.180Z,69.10
2022-11-02T20:27:52.199Z,68.67
2022-11-02T20:30:22.455Z,67.41
2022-11-02T20:32:51.519Z,66.33
2022-11-02T20:35:25.702Z,65.41
2022-11-02T20:37:56.017Z,64.30
2022-11-02T20:40:28.092Z,63.33
2022-11-02T20:43:00.752Z,63.43
2022-11-02T20:45:31.187Z,62.60
2022-11-02T20:48:02.712Z,64.65
2022-11-02T20:50:33.991Z,63.63
2022-11-02T20:53:03.485Z,64.44
2022-11-02T20:55:53.644Z,66.44
2022-11-02T20:58:23.055Z,68.04
2022-11-02T21:00:52.910Z,70.66
2022-11-02T21:03:42.981Z,68.52
2022-11-02T21:06:13.353Z,67.52
2022-11-02T21:08:45.073Z,68.59
2022-11-02T21:11:31.378Z,68.93
2022-11-02T21:14:00.173Z,70.55
2022-11-02T21:16:31.072Z,71.63
2022-11-02T21:19:00.191Z,73.18
2022-11-02T21:21:30.418Z,72.02
2022-11-02T21:23:59.415Z,70.89
2022-11-02T21:26:29.556Z,71.01
2022-11-02T21:28:59.222Z,69.32
2022-11-02T21:31:31.927Z,69.95
2022-11-02T21:34:02.239Z,69.32
2022-11-02T21:36:33.982Z,70.75
2022-11-02T21:39:03.527Z,71.78
2022-11-02T21:41:38.388Z,71.42
2022-11-02T21:44:13.931Z,70.46
2022-11-02T21:47:02.726Z,69.48
2022-11-02T21:49:33.010Z,69.56
2022-11-02T21:52:03.637Z,68.80
2022-11-02T21:54:32.856Z,67.96
2022-11-02T21:57:03.589Z,68.54
2022-11-02T21:59:33.098Z,70.47
2022-11-02T22:02:00.940Z,72.86
2022-11-02T22:04:31.902Z,72.89
2022-11-02T22:07:05.553Z,73.40
2022-11-02T22:09:54.557Z,73.23
2022-11-02T22:12:40.937Z,72.57
2022-11-02T22:15:10.907Z,74.04
2022-11-02T22:17:49.734Z,72.78
2022-11-02T22:20:20.777Z,72.97
2022-11-02T22:22:52.337Z,74.30
2022-11-02T22:25:22.787Z,73.11
2022-11-02T22:27:53.721Z,74.11
2022-11-02T22:30:24.563Z,74.93
2022-11-02T22:32:53.900Z,75.77
2022-11-02T22:35:23.404Z,77.06
2022-11-02T22:38:11.034Z,76.31
2022-11-02T22:40:43.311Z,77.16
2022-11-02T22:43:12.805Z,77.95
2022-11-02T22:45:43.497Z,77.52
2022-11-02T22:48:13.883Z,75.61
2022-11-02T22:50:45.664Z,75.76
2022-11-02T22:53:17.659Z,74.81
2022-11-02T22:55:46.963Z,73.27
2022-11-02T22:58:16.457Z,72.08
2022-11-02T23:00:46.059Z,70.97
2022-11-02T23:03:17.040Z,69.29
2022-11-02T23:05:48.080Z,69.11
2022-11-02T23:08:20.891Z,68.65
2022-11-02T23:11:15.980Z,68.80
2022-11-02T23:13:50.315Z,68.00
2022-11-02T23:16:23.956Z,69.02
2022-11-02T23:19:18.890Z,67.78
2022-11-02T23:22:09.437Z,68.39
2022-11-02T23:24:57.990Z,67.01
2022-11-02T23:27:31.229Z,66.36
2022-11-02T23:30:17.940Z,67.94
2022-11-02T23:32:46.963Z,70.04
2022-11-02T23:35:39.125Z,70.61
2022-11-02T23:38:08.179Z,71.63
2022-11-02T23:40:40.090Z,69.41
2022-11-02T23:43:10.501Z,68.54
2022-11-02T23:45:39.931Z,68.33
2022-11-02T23:48:10.658Z,67.76
2022-11-02T23:50:56.904Z,67.10
2022-11-02T23:53:43.313Z,65.70
2022-11-02T23:56:35.828Z,65.13
2022-11-02T23:59:09.869Z,64.56
